Terminal Aerodrome Forecast
Issued by NWS Charleston, WV

Current Version | Previous Version | Graphics & Text | Print | Product List | Glossary On
Versions: 1 2 3 4 5 6 7 8 9 10 11 12 13 14 15 16 17 18 19 20 21 22 23 24 25
000
FTUS41 KRLX 310216 AAA
TAFEKN
TAF AMD
KEKN 310216Z 3102/3124 30006KT P6SM FEW050
     FM310500 00000KT 4SM BR SKC
     FM310600 00000KT 1/4SM FG VV001
     FM311200 00000KT 3SM BR SCT001
     FM311300 VRB03KT P6SM SKC
     FM311900 29007KT P6SM FEW045=

USA.gov is the U.S. government's official web portal to all federal, state and local government web resources and services.